Time;durP1;ratioP1;P1;durP2;ratioP2;P2;SDS_P1;SDS_P2;PMS_P1;PMS_P2;Temp;Humidity;BMP_temperature;BMP_pressure;BME280_temperature;BME280_humidity;BME280_pressure;Samples;Min_cycle;Max_cycle;Signal;HPM_P1;HPM_P2
2021/06/19 00:00:39;;;;;;;18.13;11.30;;;17.90;99.90;;;;;;5033366;28;20178;-86
2021/06/19 00:03:05;;;;;;;14.20;10.80;;;17.90;99.90;;;;;;5033741;28;20297;-85
2021/06/19 00:05:32;;;;;;;17.47;12.57;;;18.00;99.90;;;;;;5033655;28;20211;-86
2021/06/19 00:07:57;;;;;;;17.10;11.80;;;18.00;99.90;;;;;;5034886;28;20219;-87
2021/06/19 00:10:24;;;;;;;21.53;12.17;;;18.00;99.90;;;;;;5013576;28;20701;-87
2021/06/19 00:12:51;;;;;;;24.00;13.13;;;18.10;99.90;;;;;;5023911;28;20198;-86
2021/06/19 00:15:19;;;;;;;16.13;11.73;;;18.00;99.90;;;;;;5033112;28;20226;-90
2021/06/19 00:17:46;;;;;;;19.37;11.53;;;18.00;99.90;;;;;;5033564;28;20214;-87
2021/06/19 00:20:14;;;;;;;21.57;12.00;;;18.00;99.90;;;;;;5033375;28;20557;-87
2021/06/19 00:22:40;;;;;;;19.83;11.70;;;18.10;99.90;;;;;;5033781;28;20214;-87
2021/06/19 00:25:08;;;;;;;20.83;13.27;;;18.10;99.90;;;;;;5033396;28;20195;-85
2021/06/19 00:27:34;;;;;;;16.87;12.27;;;18.10;99.90;;;;;;5017263;28;20193;-86
2021/06/19 00:30:00;;;;;;;20.60;12.83;;;18.10;99.90;;;;;;5021700;28;20302;-86
2021/06/19 00:32:26;;;;;;;18.60;12.37;;;18.10;99.90;;;;;;5028099;28;20389;-87
2021/06/19 00:34:52;;;;;;;17.43;11.27;;;18.10;99.90;;;;;;5016541;28;20242;-87
2021/06/19 00:37:18;;;;;;;16.53;13.17;;;18.00;99.90;;;;;;5017090;28;20197;-90
2021/06/19 00:39:44;;;;;;;16.97;11.97;;;18.00;99.90;;;;;;5001190;28;20708;-86
2021/06/19 00:42:10;;;;;;;20.33;12.80;;;18.10;99.90;;;;;;5033100;28;20743;-86
2021/06/19 00:44:36;;;;;;;17.37;11.27;;;18.00;99.90;;;;;;5032825;28;20228;-86
2021/06/19 00:47:02;;;;;;;14.87;11.10;;;18.00;99.90;;;;;;5032901;28;20297;-85
2021/06/19 00:49:28;;;;;;;20.47;12.73;;;18.00;99.90;;;;;;5032415;28;20214;-85
2021/06/19 00:51:54;;;;;;;19.13;11.83;;;18.00;99.90;;;;;;5015867;28;20186;-86
2021/06/19 00:54:20;;;;;;;24.00;13.83;;;18.00;99.90;;;;;;5016237;28;20223;-88
2021/06/19 00:56:46;;;;;;;21.57;12.57;;;18.00;99.90;;;;;;5032711;28;20284;-88
2021/06/19 00:59:14;;;;;;;19.50;13.53;;;18.00;99.90;;;;;;5033759;28;20222;-85
2021/06/19 01:01:40;;;;;;;18.07;11.90;;;18.00;99.90;;;;;;5032597;28;20309;-87
2021/06/19 01:04:06;;;;;;;20.80;12.70;;;18.00;99.90;;;;;;5000034;28;21292;-87
2021/06/19 01:06:34;;;;;;;16.83;13.07;;;18.00;99.90;;;;;;5017507;28;20268;-86
2021/06/19 01:09:00;;;;;;;16.47;11.50;;;18.00;99.90;;;;;;5016201;28;20281;-86
2021/06/19 01:11:29;;;;;;;19.17;13.73;;;18.00;99.90;;;;;;5032452;28;20211;-85
2021/06/19 01:13:55;;;;;;;21.13;13.77;;;18.00;99.90;;;;;;5032399;28;20230;-85
2021/06/19 01:16:21;;;;;;;15.13;11.93;;;18.00;99.90;;;;;;4995795;28;20566;-92
2021/06/19 01:18:47;;;;;;;18.57;12.47;;;18.00;99.90;;;;;;5015335;28;20662;-86
2021/06/19 01:21:24;;;;;;;19.40;12.80;;;18.00;99.90;;;;;;5011635;28;20215;-87
2021/06/19 01:23:52;;;;;;;17.40;13.20;;;17.90;99.90;;;;;;5037468;28;20305;-87
2021/06/19 01:26:21;;;;;;;20.30;13.37;;;17.90;99.90;;;;;;5035794;28;20257;-86
2021/06/19 01:28:48;;;;;;;23.60;12.50;;;17.90;99.90;;;;;;5040465;28;20218;-86
2021/06/19 01:31:15;;;;;;;20.33;13.00;;;17.90;99.90;;;;;;5031781;28;20223;-87
2021/06/19 01:33:42;;;;;;;24.10;13.73;;;17.90;99.90;;;;;;5011644;28;20809;-87
2021/06/19 01:36:08;;;;;;;15.80;12.30;;;17.90;99.90;;;;;;5021433;28;20226;-87
2021/06/19 01:38:46;;;;;;;21.30;11.93;;;17.90;99.90;;;;;;5032714;28;20241;-87
2021/06/19 01:41:21;;;;;;;18.50;12.97;;;17.90;99.90;;;;;;5032577;28;20210;-87
2021/06/19 01:43:49;;;;;;;24.83;15.07;;;17.90;99.90;;;;;;5031573;28;20222;-87
2021/06/19 01:46:15;;;;;;;22.17;15.97;;;17.90;99.90;;;;;;5032272;28;20198;-89
2021/06/19 01:48:41;;;;;;;21.80;13.57;;;18.00;99.90;;;;;;5031369;28;20225;-87
2021/06/19 01:51:11;;;;;;;20.03;14.90;;;18.00;99.90;;;;;;5030943;28;20276;-87
2021/06/19 01:53:42;;;;;;;23.80;15.43;;;18.00;99.90;;;;;;5030439;28;20233;-87
2021/06/19 01:56:08;;;;;;;25.37;17.23;;;18.10;99.90;;;;;;5031892;28;20257;-87
2021/06/19 01:58:35;;;;;;;25.57;16.47;;;18.20;99.90;;;;;;5015091;28;20226;-87
2021/06/19 02:01:05;;;;;;;25.07;15.23;;;18.20;99.90;;;;;;5031238;28;20240;-87
2021/06/19 02:03:31;;;;;;;24.50;16.00;;;18.20;99.90;;;;;;5032994;28;20247;-86
2021/06/19 02:05:57;;;;;;;30.27;17.70;;;18.30;99.90;;;;;;5033039;28;20271;-87
2021/06/19 02:08:23;;;;;;;27.13;17.73;;;18.40;99.90;;;;;;5015322;28;20246;-87
2021/06/19 02:10:50;;;;;;;28.50;16.60;;;18.40;99.90;;;;;;5015149;28;20214;-87
2021/06/19 02:13:16;;;;;;;34.60;17.73;;;18.40;99.90;;;;;;5015103;28;20186;-88
2021/06/19 02:15:47;;;;;;;24.97;16.87;;;18.40;99.90;;;;;;5031891;28;20191;-86
2021/06/19 02:18:13;;;;;;;26.43;16.57;;;18.50;99.90;;;;;;5031443;28;20290;-87
2021/06/19 02:20:39;;;;;;;30.03;17.57;;;18.50;99.90;;;;;;5031188;28;20673;-86
2021/06/19 02:23:06;;;;;;;30.87;17.13;;;18.60;99.90;;;;;;5031465;28;20214;-86
2021/06/19 02:25:32;;;;;;;28.23;17.83;;;18.60;99.90;;;;;;5032505;28;21291;-87
2021/06/19 02:28:06;;;;;;;36.83;19.00;;;18.60;99.90;;;;;;5033083;28;20795;-86
2021/06/19 02:30:38;;;;;;;27.90;16.93;;;18.60;99.90;;;;;;5031624;28;20209;-88
2021/06/19 02:33:05;;;;;;;29.97;16.40;;;18.70;99.90;;;;;;5032241;28;20270;-87
2021/06/19 02:35:33;;;;;;;30.03;18.47;;;18.70;99.90;;;;;;5014584;28;20246;-86
2021/06/19 02:37:59;;;;;;;25.23;15.47;;;18.70;99.90;;;;;;5030994;28;20214;-87
2021/06/19 02:40:26;;;;;;;27.77;17.33;;;18.80;99.90;;;;;;5030941;28;20218;-87
2021/06/19 02:42:52;;;;;;;28.57;14.97;;;18.80;99.90;;;;;;5031208;28;20182;-88
2021/06/19 02:45:19;;;;;;;21.53;14.70;;;18.80;99.90;;;;;;5031312;28;20214;-87
2021/06/19 02:47:47;;;;;;;27.33;15.13;;;18.90;99.90;;;;;;5030983;28;20241;-88
2021/06/19 02:50:14;;;;;;;27.53;16.97;;;18.90;99.90;;;;;;5031202;28;20222;-88
2021/06/19 02:52:42;;;;;;;21.03;14.67;;;18.90;99.90;;;;;;5017997;28;20223;-88
2021/06/19 02:55:13;;;;;;;29.27;16.47;;;19.00;99.90;;;;;;5024311;28;20202;-88
2021/06/19 02:57:39;;;;;;;25.83;14.10;;;19.00;99.90;;;;;;5031896;28;20194;-88
2021/06/19 03:00:07;;;;;;;25.57;13.43;;;19.10;99.90;;;;;;5030058;28;20222;-86
2021/06/19 03:02:32;;;;;;;19.70;14.37;;;19.10;99.90;;;;;;5014413;28;20214;-87
2021/06/19 03:04:58;;;;;;;22.53;14.47;;;19.10;99.90;;;;;;5015028;28;20249;-89
2021/06/19 03:07:24;;;;;;;22.53;12.57;;;19.20;99.90;;;;;;5015084;28;20297;-87
2021/06/19 03:09:50;;;;;;;20.87;13.47;;;19.20;99.90;;;;;;5031948;28;20618;-89
2021/06/19 03:12:16;;;;;;;19.63;13.53;;;19.20;99.90;;;;;;5015039;28;20213;-92
2021/06/19 03:14:42;;;;;;;22.43;14.30;;;19.20;99.90;;;;;;5012602;28;20594;-87
2021/06/19 03:17:07;;;;;;;25.20;14.27;;;19.30;99.90;;;;;;5035125;28;20219;-87
2021/06/19 03:19:33;;;;;;;17.60;12.73;;;19.30;99.90;;;;;;5018309;28;20258;-87
2021/06/19 03:22:00;;;;;;;22.90;13.70;;;19.30;99.90;;;;;;5002342;28;20179;-87
2021/06/19 03:24:26;;;;;;;20.27;12.40;;;19.30;99.90;;;;;;5035606;28;20206;-87
2021/06/19 03:26:54;;;;;;;19.20;14.03;;;19.20;99.90;;;;;;5034894;28;20214;-87
2021/06/19 03:29:20;;;;;;;19.33;13.93;;;19.30;99.90;;;;;;5036013;28;20227;-87
2021/06/19 03:31:45;;;;;;;21.03;14.47;;;19.30;99.90;;;;;;5002170;28;20198;-87
2021/06/19 03:34:11;;;;;;;24.90;13.97;;;19.40;99.90;;;;;;5034560;28;20218;-87
2021/06/19 03:36:37;;;;;;;23.60;11.37;;;19.30;99.90;;;;;;5015538;28;20558;-87
2021/06/19 03:39:03;;;;;;;16.90;10.93;;;19.40;99.90;;;;;;5018389;28;20222;-88
2021/06/19 03:41:29;;;;;;;18.50;11.70;;;19.40;99.90;;;;;;5034946;28;20217;-87
2021/06/19 03:43:55;;;;;;;19.60;12.23;;;19.40;99.90;;;;;;5001940;28;20219;-89
2021/06/19 03:46:21;;;;;;;19.37;11.63;;;19.50;99.90;;;;;;5034783;28;20218;-88
2021/06/19 03:48:47;;;;;;;16.93;10.77;;;19.50;99.90;;;;;;5035535;28;20618;-88
2021/06/19 03:51:13;;;;;;;16.77;10.23;;;19.60;99.90;;;;;;5002303;28;20244;-88
2021/06/19 03:53:39;;;;;;;17.43;10.27;;;19.50;99.90;;;;;;5034042;28;20218;-88
2021/06/19 03:56:05;;;;;;;14.47;8.27;;;19.50;99.90;;;;;;5021655;28;20230;-88
2021/06/19 03:58:31;;;;;;;17.07;10.20;;;19.50;99.90;;;;;;5044491;28;20575;-89
2021/06/19 04:00:57;;;;;;;18.37;11.37;;;19.50;99.90;;;;;;5017721;28;20321;-89
2021/06/19 04:03:22;;;;;;;19.87;9.27;;;19.60;99.90;;;;;;5004735;28;20706;-89
2021/06/19 04:05:48;;;;;;;19.80;9.80;;;19.60;99.90;;;;;;5019622;28;20222;-88
2021/06/19 04:08:14;;;;;;;16.90;9.93;;;19.60;99.90;;;;;;5028645;28;20222;-87
2021/06/19 04:10:40;;;;;;;15.77;11.10;;;19.60;99.90;;;;;;5034586;28;20219;-88
2021/06/19 04:13:05;;;;;;;19.63;10.73;;;19.60;99.90;;;;;;5033842;28;20241;-88
2021/06/19 04:15:31;;;;;;;19.93;11.47;;;19.60;99.90;;;;;;5018139;28;20210;-89
2021/06/19 04:17:57;;;;;;;17.73;10.33;;;19.60;99.90;;;;;;5016837;28;20218;-87
2021/06/19 04:20:23;;;;;;;18.00;9.30;;;19.60;99.90;;;;;;5033735;28;20230;-87
2021/06/19 04:22:49;;;;;;;21.27;11.77;;;19.60;99.90;;;;;;5033831;28;20215;-87
2021/06/19 04:25:17;;;;;;;21.20;11.67;;;19.50;99.90;;;;;;5033938;28;20182;-88
2021/06/19 04:27:54;;;;;;;26.97;12.53;;;19.50;99.90;;;;;;5033932;28;20645;-88
2021/06/19 04:30:22;;;;;;;24.20;13.50;;;19.50;99.90;;;;;;5034028;28;20264;-87
2021/06/19 04:32:48;;;;;;;31.57;14.73;;;19.50;99.90;;;;;;4999102;28;20211;-86
2021/06/19 04:35:15;;;;;;;30.53;15.00;;;19.50;99.90;;;;;;5033411;28;20237;-87
2021/06/19 04:37:42;;;;;;;29.23;13.43;;;19.50;99.90;;;;;;5016656;28;20214;-87
2021/06/19 04:40:14;;;;;;;24.83;12.60;;;19.50;99.90;;;;;;5034804;28;20321;-87
2021/06/19 04:42:43;;;;;;;24.97;13.07;;;19.40;99.90;;;;;;5002690;28;20653;-87
2021/06/19 04:45:11;;;;;;;27.10;13.30;;;19.40;99.90;;;;;;5033811;28;20582;-86
2021/06/19 04:47:38;;;;;;;40.90;14.53;;;19.30;99.90;;;;;;5033855;28;20215;-87
2021/06/19 04:50:08;;;;;;;28.27;12.77;;;19.30;99.90;;;;;;5032898;28;20360;-88
2021/06/19 04:52:35;;;;;;;25.40;12.03;;;19.20;99.90;;;;;;5013612;28;20212;-86
2021/06/19 04:55:02;;;;;;;21.40;11.70;;;19.20;99.90;;;;;;5016365;28;20697;-86
2021/06/19 04:57:28;;;;;;;24.83;12.53;;;19.20;99.90;;;;;;5016649;28;20715;-86
2021/06/19 04:59:56;;;;;;;15.33;8.37;;;19.10;99.90;;;;;;5032699;28;20310;-88
2021/06/19 05:02:22;;;;;;;16.87;10.53;;;19.00;99.90;;;;;;5032765;28;20217;-86
2021/06/19 05:04:48;;;;;;;18.33;9.77;;;18.90;99.90;;;;;;5032669;28;20218;-86
2021/06/19 05:07:14;;;;;;;17.57;10.60;;;18.90;99.90;;;;;;5033108;28;20226;-88
2021/06/19 05:09:40;;;;;;;17.70;10.30;;;18.90;99.90;;;;;;5016193;28;20224;-88
2021/06/19 05:12:07;;;;;;;15.40;9.97;;;18.90;99.90;;;;;;5012583;28;20265;-83
2021/06/19 05:14:33;;;;;;;17.50;9.90;;;18.90;99.90;;;;;;5015836;28;20249;-86
2021/06/19 05:16:59;;;;;;;13.93;9.23;;;18.90;99.90;;;;;;5012647;28;20247;-85
2021/06/19 05:19:25;;;;;;;17.53;9.37;;;19.10;99.90;;;;;;5043851;28;20575;-85
2021/06/19 05:21:50;;;;;;;21.20;10.73;;;19.20;99.90;;;;;;4999939;28;20197;-85
2021/06/19 05:24:17;;;;;;;19.67;9.97;;;19.40;99.90;;;;;;5015528;28;20272;-85
2021/06/19 05:26:42;;;;;;;16.93;9.43;;;19.40;99.90;;;;;;5015240;28;20747;-86
2021/06/19 05:29:08;;;;;;;13.70;8.57;;;19.50;99.90;;;;;;5015502;28;20222;-85
2021/06/19 05:31:34;;;;;;;16.23;8.57;;;19.60;99.90;;;;;;5015012;28;20684;-85
2021/06/19 05:34:00;;;;;;;14.20;9.33;;;19.90;99.90;;;;;;5015567;28;20210;-84
2021/06/19 05:36:26;;;;;;;13.47;8.47;;;20.40;99.90;;;;;;5032076;28;20289;-86
2021/06/19 05:38:52;;;;;;;10.57;7.70;;;21.20;99.90;;;;;;5031205;28;20289;-86
2021/06/19 05:41:17;;;;;;;11.87;8.17;;;22.20;99.90;;;;;;5031602;28;20250;-85
2021/06/19 05:43:43;;;;;;;8.73;6.70;;;22.00;99.90;;;;;;5032644;28;20265;-86
2021/06/19 05:46:09;;;;;;;9.57;7.03;;;21.00;99.90;;;;;;5014903;28;20190;-86
2021/06/19 05:48:35;;;;;;;12.37;6.87;;;20.30;99.90;;;;;;5016000;28;20186;-84
2021/06/19 05:51:01;;;;;;;12.00;7.97;;;19.90;99.90;;;;;;5031369;28;20272;-85
2021/06/19 05:53:27;;;;;;;10.77;7.80;;;19.60;99.90;;;;;;5015263;28;20246;-85
2021/06/19 05:55:54;;;;;;;9.20;6.87;;;19.50;99.90;;;;;;5031172;28;20743;-85
2021/06/19 05:58:19;;;;;;;12.43;8.77;;;19.40;99.90;;;;;;5030768;28;20226;-83
2021/06/19 06:00:45;;;;;;;9.80;7.33;;;19.40;99.90;;;;;;5014037;28;20275;-85
2021/06/19 06:03:11;;;;;;;12.73;8.00;;;19.20;99.90;;;;;;4998139;28;20211;-86
2021/06/19 06:05:37;;;;;;;16.07;9.40;;;19.30;99.90;;;;;;4995428;28;20215;-84
2021/06/19 06:08:02;;;;;;;11.37;7.70;;;19.40;99.90;;;;;;5017489;28;20219;-86
2021/06/19 06:10:29;;;;;;;12.87;8.03;;;19.40;99.90;;;;;;5028758;28;20575;-86
2021/06/19 06:12:56;;;;;;;11.90;7.47;;;19.30;99.90;;;;;;5029325;28;20274;-83
2021/06/19 06:15:25;;;;;;;11.70;8.30;;;19.30;99.90;;;;;;5031710;28;20218;-82
2021/06/19 06:17:51;;;;;;;13.13;8.40;;;19.20;99.90;;;;;;5030790;28;20356;-84
2021/06/19 06:20:16;;;;;;;15.10;8.13;;;19.20;99.90;;;;;;5014552;28;20293;-80
2021/06/19 06:22:42;;;;;;;12.70;8.10;;;19.20;99.90;;;;;;5029739;28;20222;-82
2021/06/19 06:25:09;;;;;;;17.73;8.77;;;19.40;99.90;;;;;;5030740;28;20244;-84
2021/06/19 06:27:35;;;;;;;10.77;7.90;;;19.40;99.90;;;;;;5032407;28;20220;-81
2021/06/19 06:30:01;;;;;;;12.57;6.23;;;19.30;99.90;;;;;;5014128;28;20211;-85
2021/06/19 06:32:29;;;;;;;11.47;7.63;;;19.30;99.90;;;;;;5028503;28;20222;-82
2021/06/19 06:34:55;;;;;;;14.07;7.30;;;19.40;99.90;;;;;;5021483;28;20317;-82
2021/06/19 06:37:21;;;;;;;11.57;6.93;;;20.00;99.90;;;;;;5027804;28;20252;-82
2021/06/19 06:39:46;;;;;;;9.67;7.27;;;20.80;99.90;;;;;;5019935;28;20191;-84
2021/06/19 06:42:12;;;;;;;11.80;6.90;;;21.50;99.90;;;;;;5016571;28;20213;-83
2021/06/19 06:44:38;;;;;;;9.60;5.83;;;21.30;99.90;;;;;;5030019;28;20767;-84
2021/06/19 06:47:05;;;;;;;12.20;7.57;;;20.80;99.90;;;;;;5032537;28;20221;-83
2021/06/19 06:49:31;;;;;;;9.50;6.23;;;20.70;99.90;;;;;;5015798;28;20300;-85
2021/06/19 06:51:57;;;;;;;9.93;5.87;;;20.70;99.90;;;;;;5015013;28;21055;-86
2021/06/19 06:54:23;;;;;;;9.83;7.03;;;20.20;99.90;;;;;;5013977;28;20634;-87
2021/06/19 06:56:49;;;;;;;11.50;7.47;;;20.00;99.90;;;;;;5014037;28;20712;-84
2021/06/19 06:59:15;;;;;;;10.63;7.10;;;19.90;99.90;;;;;;5031735;28;20338;-84
2021/06/19 07:01:41;;;;;;;8.57;6.23;;;19.90;99.90;;;;;;5013233;28;20213;-81
2021/06/19 07:04:07;;;;;;;12.47;6.80;;;19.90;99.90;;;;;;5029539;28;20197;-82
2021/06/19 07:06:32;;;;;;;9.97;5.97;;;19.80;99.90;;;;;;5013405;28;20595;-81
2021/06/19 07:08:58;;;;;;;8.37;6.43;;;19.60;99.90;;;;;;5031967;28;20221;-81
2021/06/19 07:11:24;;;;;;;10.57;6.67;;;19.50;99.90;;;;;;5026323;28;20222;-83
2021/06/19 07:13:50;;;;;;;10.93;6.40;;;19.20;99.90;;;;;;5014029;28;21140;-84
2021/06/19 07:16:16;;;;;;;9.43;7.00;;;19.10;99.90;;;;;;5029528;28;20197;-82
2021/06/19 07:18:44;;;;;;;13.37;6.73;;;19.00;99.90;;;;;;5030858;28;20179;-85
2021/06/19 07:21:10;;;;;;;11.33;5.57;;;19.10;99.90;;;;;;5029798;28;20226;-83
2021/06/19 07:23:35;;;;;;;12.03;6.43;;;19.20;99.90;;;;;;5031224;28;20222;-84
2021/06/19 07:26:03;;;;;;;10.37;6.17;;;19.40;99.90;;;;;;5032541;28;20628;-86
2021/06/19 07:28:29;;;;;;;10.30;6.87;;;19.70;99.90;;;;;;5030568;28;21186;-84
2021/06/19 07:30:55;;;;;;;8.93;5.63;;;20.10;99.90;;;;;;5014088;28;20221;-83
2021/06/19 07:33:21;;;;;;;7.63;5.40;;;20.40;99.90;;;;;;5011737;28;20690;-83
2021/06/19 07:35:47;;;;;;;8.03;5.90;;;20.30;99.90;;;;;;5029096;28;20249;-85
2021/06/19 07:38:12;;;;;;;8.60;5.60;;;20.70;99.90;;;;;;5014301;28;20230;-83
2021/06/19 07:40:38;;;;;;;11.20;5.60;;;21.00;99.90;;;;;;5012870;28;20218;-84
2021/06/19 07:43:04;;;;;;;6.60;4.67;;;22.10;99.90;;;;;;4997644;28;20191;-86
2021/06/19 07:45:30;;;;;;;7.30;5.33;;;22.00;99.90;;;;;;5014026;28;20237;-86
2021/06/19 07:47:55;;;;;;;5.87;5.20;;;22.00;99.90;;;;;;5031331;28;20218;-84
2021/06/19 07:50:21;;;;;;;6.03;4.03;;;22.90;99.90;;;;;;5013544;28;20293;-86
2021/06/19 07:52:47;;;;;;;5.13;2.78;;;23.70;99.90;;;;;;5029601;28;20685;-89
2021/06/19 07:55:14;;;;;;;4.17;3.23;;;23.30;99.90;;;;;;5030887;28;20707;-87
2021/06/19 07:57:40;;;;;;;4.23;2.90;;;22.50;99.90;;;;;;5030942;28;20230;-88
2021/06/19 08:00:07;;;;;;;3.30;3.00;;;22.20;99.90;;;;;;5029160;28;20233;-88
2021/06/19 08:02:34;;;;;;;5.83;3.33;;;21.20;99.90;;;;;;5033771;28;20246;-85
2021/06/19 08:04:59;;;;;;;3.23;2.53;;;20.80;99.90;;;;;;5018066;28;20620;-85
2021/06/19 08:07:25;;;;;;;5.27;3.73;;;20.40;99.90;;;;;;5015513;28;20226;-86
2021/06/19 08:09:51;;;;;;;4.67;3.70;;;20.30;99.90;;;;;;5036584;28;20555;-84
2021/06/19 08:12:17;;;;;;;6.10;4.10;;;20.10;99.90;;;;;;5015911;28;21276;-85
2021/06/19 08:14:43;;;;;;;6.03;3.73;;;20.10;99.90;;;;;;5016596;28;20693;-86
2021/06/19 08:17:15;;;;;;;4.57;3.07;;;20.30;99.90;;;;;;5032198;28;20794;-84
2021/06/19 08:19:43;;;;;;;7.53;4.10;;;20.30;99.90;;;;;;5016219;28;20222;-86
2021/06/19 08:22:09;;;;;;;5.23;3.57;;;20.30;99.90;;;;;;5016632;28;20370;-85
2021/06/19 08:24:35;;;;;;;5.63;3.90;;;20.40;99.90;;;;;;5036347;28;20186;-85
2021/06/19 08:27:00;;;;;;;4.27;2.30;;;20.20;99.90;;;;;;5032590;28;20225;-86
2021/06/19 08:29:26;;;;;;;3.50;2.73;;;19.80;99.90;;;;;;5000472;28;20238;-87
2021/06/19 08:31:52;;;;;;;3.40;2.70;;;19.60;99.90;;;;;;5034845;28;20628;-84
2021/06/19 08:34:18;;;;;;;3.80;3.00;;;19.70;99.90;;;;;;5019411;28;20677;-84
2021/06/19 08:36:44;;;;;;;2.67;2.43;;;20.00;99.90;;;;;;5034159;28;20628;-84
2021/06/19 08:39:09;;;;;;;2.40;2.20;;;20.00;99.90;;;;;;5030157;28;20225;-86
2021/06/19 08:41:37;;;;;;;4.23;2.47;;;20.00;99.90;;;;;;5015739;28;20301;-85
2021/06/19 08:44:03;;;;;;;3.50;2.70;;;19.90;99.90;;;;;;5031782;28;20223;-87
2021/06/19 08:46:29;;;;;;;2.90;2.60;;;19.80;99.90;;;;;;5018360;28;20223;-85
2021/06/19 08:48:57;;;;;;;5.43;3.00;;;19.80;99.90;;;;;;5033008;28;20202;-85
2021/06/19 08:51:26;;;;;;;2.63;2.43;;;19.70;99.90;;;;;;5033437;28;20215;-84
2021/06/19 08:53:52;;;;;;;4.10;3.03;;;19.60;99.90;;;;;;5033264;28;20226;-82
2021/06/19 08:56:19;;;;;;;4.57;2.77;;;19.80;99.90;;;;;;5016295;28;20225;-85
2021/06/19 08:58:47;;;;;;;3.50;2.60;;;20.00;99.90;;;;;;5034818;28;20333;-84
2021/06/19 09:01:13;;;;;;;5.03;3.10;;;20.00;99.90;;;;;;5031301;28;20187;-84
2021/06/19 09:03:39;;;;;;;3.40;2.77;;;19.90;99.90;;;;;;5033511;28;20200;-85
2021/06/19 09:06:27;;;;;;;3.40;3.10;;;19.90;99.90;;;;;;5027534;28;20222;-88
2021/06/19 09:09:05;;;;;;;4.20;2.87;;;19.90;99.90;;;;;;5015439;28;20214;-83
2021/06/19 09:11:35;;;;;;;2.93;2.63;;;20.00;99.90;;;;;;5042359;28;20250;-86
2021/06/19 09:14:10;;;;;;;3.10;2.70;;;19.80;99.90;;;;;;5032543;28;20232;-86
2021/06/19 09:16:39;;;;;;;3.37;2.77;;;19.80;99.90;;;;;;5032728;28;20244;-85
2021/06/19 09:19:23;;;;;;;3.67;2.90;;;19.70;99.90;;;;;;5032552;28;20635;-84
2021/06/19 09:22:18;;;;;;;4.20;2.93;;;19.90;99.90;;;;;;5034386;28;20198;-84
2021/06/19 09:24:44;;;;;;;4.57;2.73;;;20.10;99.90;;;;;;5029997;28;20230;-86
2021/06/19 09:27:44;;;;;;;5.27;2.67;;;20.20;99.90;;;;;;5033479;28;20213;-82
2021/06/19 09:30:15;;;;;;;4.70;3.20;;;20.20;99.90;;;;;;5047266;28;20252;-81
2021/06/19 09:33:04;;;;;;;4.37;3.50;;;20.10;99.90;;;;;;5030468;28;20344;-83
2021/06/19 09:35:39;;;;;;;5.97;3.80;;;20.40;99.90;;;;;;5033181;28;20254;-83
2021/06/19 09:38:07;;;;;;;4.83;3.47;;;20.60;99.90;;;;;;5033456;28;20225;-83
2021/06/19 09:40:35;;;;;;;3.80;3.20;;;20.40;99.90;;;;;;5030549;28;20226;-82
2021/06/19 09:43:08;;;;;;;4.67;2.97;;;20.30;99.90;;;;;;5031197;28;20190;-80
2021/06/19 09:45:34;;;;;;;3.97;3.03;;;20.00;99.90;;;;;;5029403;28;20189;-81
2021/06/19 09:48:00;;;;;;;2.80;2.50;;;20.00;99.90;;;;;;5012715;28;20217;-84
2021/06/19 09:50:26;;;;;;;2.90;2.63;;;19.90;99.90;;;;;;5029670;28;20226;-84
2021/06/19 09:52:52;;;;;;;5.10;3.20;;;19.90;99.90;;;;;;5031895;28;20227;-86
2021/06/19 09:55:18;;;;;;;6.90;3.40;;;19.70;99.90;;;;;;5027750;28;20222;-84
2021/06/19 09:57:45;;;;;;;4.50;3.20;;;19.80;99.90;;;;;;5027568;28;20193;-81
2021/06/19 10:00:16;;;;;;;7.47;4.27;;;19.60;99.90;;;;;;5030872;28;20329;-84
2021/06/19 10:02:43;;;;;;;8.20;4.50;;;19.60;99.90;;;;;;5031472;28;20267;-80
2021/06/19 10:05:10;;;;;;;9.27;3.97;;;19.60;99.90;;;;;;5031606;28;20221;-80
2021/06/19 10:07:36;;;;;;;4.07;3.70;;;19.70;99.90;;;;;;5027580;28;20248;-80
2021/06/19 10:10:08;;;;;;;4.53;3.10;;;19.70;99.90;;;;;;5028843;28;20190;-81
2021/06/19 10:12:36;;;;;;;3.87;2.97;;;19.50;99.90;;;;;;5032257;28;20737;-83
2021/06/19 10:15:01;;;;;;;3.97;3.10;;;19.20;99.90;;;;;;5016888;28;20260;-83
2021/06/19 10:17:31;;;;;;;4.23;3.83;;;19.20;99.90;;;;;;5029620;28;20337;-82
2021/06/19 10:20:00;;;;;;;3.97;2.90;;;19.30;99.90;;;;;;5031409;28;20245;-82
2021/06/19 10:22:31;;;;;;;4.30;3.90;;;19.40;99.90;;;;;;5029262;28;20218;-83
2021/06/19 10:25:00;;;;;;;5.60;3.73;;;19.10;99.90;;;;;;5013605;28;20208;-81
2021/06/19 10:27:29;;;;;;;5.77;3.00;;;19.30;99.90;;;;;;5030703;28;20534;-86
2021/06/19 10:29:57;;;;;;;5.93;3.50;;;19.40;99.90;;;;;;5030593;28;20317;-84
2021/06/19 10:32:46;;;;;;;4.80;3.23;;;19.80;99.90;;;;;;5033924;28;20241;-86
2021/06/19 10:35:17;;;;;;;3.20;2.90;;;20.10;99.90;;;;;;5028308;28;20264;-84
2021/06/19 10:37:44;;;;;;;4.30;2.50;;;20.00;99.90;;;;;;5029823;28;20216;-81
2021/06/19 10:40:25;;;;;;;3.50;2.70;;;20.00;99.90;;;;;;5027738;28;20996;-81
2021/06/19 10:43:13;;;;;;;5.37;3.37;;;19.70;99.90;;;;;;5031329;28;20966;-82
2021/06/19 10:45:43;;;;;;;6.47;3.77;;;19.70;99.90;;;;;;5031473;28;20228;-85
2021/06/19 10:48:12;;;;;;;3.63;3.13;;;19.50;99.90;;;;;;5031312;28;20224;-83
2021/06/19 10:50:40;;;;;;;8.70;3.30;;;19.40;99.90;;;;;;5013402;28;20279;-82
2021/06/19 10:53:08;;;;;;;4.00;3.60;;;19.60;99.90;;;;;;5028433;28;20221;-83
2021/06/19 10:55:43;;;;;;;4.70;3.33;;;19.50;99.90;;;;;;5030965;28;20272;-82
2021/06/19 10:58:29;;;;;;;8.37;3.97;;;19.70;99.90;;;;;;5031521;28;20216;-81
2021/06/19 11:00:56;;;;;;;6.20;3.23;;;19.70;99.90;;;;;;5030728;28;20216;-84
2021/06/19 11:03:48;;;;;;;4.53;3.30;;;19.60;99.90;;;;;;5031279;28;20222;-81
2021/06/19 11:06:36;;;;;;;4.80;3.87;;;19.30;99.90;;;;;;5043622;28;20279;-83
2021/06/19 11:09:04;;;;;;;5.87;3.90;;;19.20;99.90;;;;;;5028976;28;20224;-80
2021/06/19 11:11:59;;;;;;;7.03;3.93;;;19.20;99.90;;;;;;5030990;28;20263;-81
2021/06/19 11:17:32;;;;;;;4.57;3.63;;;19.00;99.90;;;;;;5032415;28;20256;-83
2021/06/19 11:20:05;;;;;;;4.63;3.87;;;18.80;99.90;;;;;;5028307;28;20319;-82
2021/06/19 11:22:39;;;;;;;4.47;3.50;;;18.90;99.90;;;;;;5029484;28;21057;-83
2021/06/19 11:25:32;;;;;;;5.27;4.13;;;19.10;99.90;;;;;;5028170;28;20281;-83
2021/06/19 11:28:11;;;;;;;4.83;4.10;;;19.30;99.90;;;;;;5031825;28;20601;-81
2021/06/19 11:30:38;;;;;;;4.30;3.90;;;19.40;99.90;;;;;;5030648;28;20201;-81
2021/06/19 11:33:24;;;;;;;4.97;3.23;;;19.20;99.90;;;;;;5044923;28;20244;-81
2021/06/19 11:36:04;;;;;;;6.13;4.27;;;19.10;99.90;;;;;;5029381;28;20246;-83
2021/06/19 11:38:52;;;;;;;4.33;3.23;;;19.30;99.90;;;;;;5028500;28;20225;-82
2021/06/19 11:41:21;;;;;;;4.90;3.83;;;19.30;99.90;;;;;;5028945;28;20217;-82
2021/06/19 11:43:47;;;;;;;5.67;3.97;;;19.50;99.90;;;;;;5032418;28;20225;-82
2021/06/19 11:46:17;;;;;;;5.50;3.97;;;19.70;99.90;;;;;;5032329;28;20292;-85
2021/06/19 11:48:55;;;;;;;8.13;4.73;;;19.30;99.90;;;;;;5035230;28;20183;-81
2021/06/19 11:51:24;;;;;;;5.73;4.43;;;19.20;99.90;;;;;;5033855;28;20213;-82
2021/06/19 11:53:50;;;;;;;8.80;4.80;;;19.10;99.90;;;;;;5034948;28;21307;-85
2021/06/19 11:56:22;;;;;;;8.30;5.00;;;19.20;99.90;;;;;;5017424;28;20333;-83
2021/06/19 11:59:01;;;;;;;8.23;4.00;;;19.20;99.90;;;;;;5035006;28;20311;-84
2021/06/19 12:01:32;;;;;;;8.40;4.23;;;19.20;99.90;;;;;;5047962;28;20217;-84
2021/06/19 12:04:00;;;;;;;8.07;5.00;;;19.10;99.90;;;;;;5016734;28;20631;-88
2021/06/19 12:06:37;;;;;;;5.17;3.70;;;19.20;99.90;;;;;;5037076;28;20666;-87
2021/06/19 12:09:08;;;;;;;6.67;5.33;;;19.10;99.90;;;;;;5032318;28;20225;-86
2021/06/19 12:11:39;;;;;;;8.53;4.07;;;19.00;99.90;;;;;;5032899;28;20222;-87
2021/06/19 12:14:23;;;;;;;10.10;5.13;;;19.00;99.90;;;;;;5030407;28;20227;-85
2021/06/19 12:16:51;;;;;;;8.33;5.00;;;19.10;99.90;;;;;;5034567;28;20195;-87
2021/06/19 12:19:19;;;;;;;7.70;4.53;;;19.20;99.90;;;;;;5035232;28;20198;-86
2021/06/19 12:21:46;;;;;;;7.70;5.33;;;19.10;99.90;;;;;;5035085;28;20367;-87
2021/06/19 12:24:33;;;;;;;7.17;5.37;;;19.00;99.90;;;;;;5015412;28;20222;-89
2021/06/19 12:27:07;;;;;;;13.80;5.60;;;19.00;99.90;;;;;;5035960;28;20216;-86
2021/06/19 12:29:37;;;;;;;9.23;6.23;;;19.00;99.90;;;;;;5033855;28;20237;-88
2021/06/19 12:32:22;;;;;;;11.03;5.90;;;18.80;99.90;;;;;;5050005;28;20217;-94
2021/06/19 12:34:48;;;;;;;11.37;5.13;;;18.60;99.90;;;;;;5034823;28;20242;-95
2021/06/19 12:37:16;;;;;;;9.00;6.53;;;18.40;99.90;;;;;;5035162;28;20313;-91
2021/06/19 12:39:45;;;;;;;7.37;5.10;;;18.40;99.90;;;;;;5035169;28;20186;-91
2021/06/19 12:42:12;;;;;;;7.33;5.10;;;18.30;99.90;;;;;;5034004;28;20217;-90
2021/06/19 12:44:38;;;;;;;9.40;6.33;;;18.20;99.90;;;;;;5035030;28;20226;-89
2021/06/19 12:47:40;;;;;;;8.83;5.23;;;18.20;99.90;;;;;;5021453;28;20806;-91